FDN269 OMDW-VTBD
Flight info
| Callsign | FDN269 |
|---|---|
| Flight time | 5h 39m |
| Altitude | 35000 |
| Route | NOLSU N300 LALDO A791 LAKIV N894 TELEM N893 AAE W40 BODAR N895 NNP L524 IBETO WEHHA3A |
| Aircraft | A20N/M-SDE2E3FGHIRWXY/LB1 |
Departure
| Time | 2026-04-26 08:13 |
|---|---|
| Airport | Al Maktoum International Airport (OMDW) |
Arrival
| Time | 2026-04-26 13:53 |
|---|---|
| Airport | Don Mueang International Airport (VTBD) |
| Time | Latitude | Longitude | Altitude | Speed | Heading |
|---|---|---|---|---|---|
| 2026-04-26 08:00 | 24.88771 | 55.16342 | 182 ft | 0 kts | 211° |
| 2026-04-26 08:03 | 24.88777 | 55.16346 | 182 ft | 2 kts | 211° |
| 2026-04-26 08:03 | 24.88792 | 55.16356 | 182 ft | 3 kts | 211° |
| 2026-04-26 08:03 | 24.88809 | 55.16367 | 182 ft | 3 kts | 211° |
| 2026-04-26 08:03 | 24.88828 | 55.16374 | 182 ft | 3 kts | 180° |
| 2026-04-26 08:04 | 24.88847 | 55.16369 | 182 ft | 3 kts | 150° |
| 2026-04-26 08:04 | 24.88858 | 55.16357 | 183 ft | 0 kts | 123° |
| 2026-04-26 08:06 | 24.88858 | 55.16359 | 182 ft | 1 kts | 123° |
| 2026-04-26 08:06 | 24.88851 | 55.16370 | 182 ft | 3 kts | 121° |
| 2026-04-26 08:06 | 24.88835 | 55.16400 | 182 ft | 5 kts | 121° |
| 2026-04-26 08:07 | 24.88815 | 55.16435 | 182 ft | 7 kts | 121° |
| 2026-04-26 08:07 | 24.88786 | 55.16489 | 182 ft | 10 kts | 121° |
| 2026-04-26 08:07 | 24.88746 | 55.16561 | 182 ft | 13 kts | 121° |
| 2026-04-26 08:07 | 24.88699 | 55.16647 | 182 ft | 13 kts | 121° |
| 2026-04-26 08:08 | 24.88654 | 55.16728 | 182 ft | 12 kts | 121° |
| 2026-04-26 08:08 | 24.88612 | 55.16805 | 182 ft | 11 kts | 121° |
| 2026-04-26 08:08 | 24.88573 | 55.16877 | 182 ft | 11 kts | 121° |
| 2026-04-26 08:08 | 24.88528 | 55.16959 | 182 ft | 14 kts | 121° |
| 2026-04-26 08:09 | 24.88476 | 55.17054 | 182 ft | 15 kts | 121° |
| 2026-04-26 08:09 | 24.88423 | 55.17149 | 182 ft | 15 kts | 121° |
| 2026-04-26 08:09 | 24.88363 | 55.17257 | 182 ft | 17 kts | 121° |
| 2026-04-26 08:09 | 24.88302 | 55.17368 | 182 ft | 18 kts | 121° |
| 2026-04-26 08:10 | 24.88237 | 55.17483 | 182 ft | 17 kts | 121° |
| 2026-04-26 08:10 | 24.88178 | 55.17591 | 182 ft | 16 kts | 121° |
| 2026-04-26 08:10 | 24.88167 | 55.17692 | 183 ft | 13 kts | 46° |
| 2026-04-26 08:10 | 24.88235 | 55.17746 | 183 ft | 12 kts | 31° |
| 2026-04-26 08:11 | 24.88308 | 55.17794 | 183 ft | 12 kts | 31° |
| 2026-04-26 08:11 | 24.88382 | 55.17843 | 183 ft | 13 kts | 31° |
| 2026-04-26 08:11 | 24.88468 | 55.17901 | 183 ft | 15 kts | 31° |
| 2026-04-26 08:11 | 24.88551 | 55.17955 | 183 ft | 12 kts | 26° |
| 2026-04-26 08:12 | 24.88624 | 55.17960 | 183 ft | 9 kts | 333° |
| 2026-04-26 08:12 | 24.88658 | 55.17918 | 183 ft | 6 kts | 304° |
| 2026-04-26 08:12 | 24.88730 | 55.17791 | 183 ft | 46 kts | 301° |
| 2026-04-26 08:12 | 24.88998 | 55.17303 | 183 ft | 102 kts | 301° |
| 2026-04-26 08:13 | 24.89453 | 55.16480 | 183 ft | 150 kts | 300° |
| 2026-04-26 08:13 | 24.90032 | 55.15420 | 480 ft | 161 kts | 302° |
| 2026-04-26 08:13 | 24.90590 | 55.14381 | 1101 ft | 158 kts | 301° |
| 2026-04-26 08:13 | 24.91134 | 55.13335 | 1578 ft | 160 kts | 301° |
| 2026-04-26 08:14 | 24.91688 | 55.12262 | 1983 ft | 164 kts | 301° |
| 2026-04-26 08:14 | 24.92275 | 55.11142 | 2199 ft | 172 kts | 302° |
| 2026-04-26 08:14 | 24.92906 | 55.10011 | 2468 ft | 176 kts | 303° |
| 2026-04-26 08:14 | 24.93565 | 55.08839 | 2705 ft | 184 kts | 302° |
| 2026-04-26 08:15 | 24.93853 | 55.07430 | 2907 ft | 199 kts | 268° |
| 2026-04-26 08:15 | 24.93293 | 55.06042 | 3152 ft | 205 kts | 228° |
| 2026-04-26 08:15 | 24.92096 | 55.05269 | 3428 ft | 200 kts | 189° |
| 2026-04-26 08:15 | 24.90741 | 55.05393 | 3711 ft | 198 kts | 160° |
| 2026-04-26 08:16 | 24.89610 | 55.06250 | 3971 ft | 203 kts | 129° |
| 2026-04-26 08:16 | 24.88927 | 55.07653 | 4185 ft | 219 kts | 111° |
| 2026-04-26 08:16 | 24.88529 | 55.09321 | 4485 ft | 234 kts | 102° |
| 2026-04-26 08:16 | 24.88338 | 55.11166 | 4755 ft | 251 kts | 95° |
| 2026-04-26 08:17 | 24.88306 | 55.13137 | 5028 ft | 267 kts | 91° |
| 2026-04-26 08:17 | 24.88373 | 55.15222 | 5411 ft | 278 kts | 89° |
| 2026-04-26 08:17 | 24.88574 | 55.17360 | 6004 ft | 282 kts | 81° |
| 2026-04-26 08:17 | 24.89064 | 55.19465 | 6676 ft | 285 kts | 74° |
| 2026-04-26 08:18 | 24.89721 | 55.21511 | 7346 ft | 286 kts | 70° |
| 2026-04-26 08:18 | 24.90480 | 55.23549 | 7908 ft | 290 kts | 68° |
| 2026-04-26 08:18 | 24.91198 | 55.25317 | 8332 ft | 296 kts | 66° |
| 2026-04-26 08:18 | 24.92069 | 55.27376 | 8899 ft | 299 kts | 66° |
| 2026-04-26 08:19 | 24.92895 | 55.29467 | 9489 ft | 300 kts | 68° |
| 2026-04-26 08:19 | 24.93682 | 55.31549 | 10066 ft | 300 kts | 69° |
| 2026-04-26 08:19 | 24.94497 | 55.33750 | 10363 ft | 314 kts | 69° |
| 2026-04-26 08:19 | 24.95333 | 55.36028 | 10647 ft | 329 kts | 69° |
| 2026-04-26 08:20 | 24.96201 | 55.38410 | 11004 ft | 343 kts | 69° |
| 2026-04-26 08:20 | 24.97084 | 55.40887 | 11557 ft | 349 kts | 70° |
| 2026-04-26 08:20 | 24.97959 | 55.43391 | 12216 ft | 352 kts | 70° |
| 2026-04-26 08:20 | 24.98815 | 55.45916 | 12915 ft | 354 kts | 70° |
| 2026-04-26 08:21 | 24.99663 | 55.48454 | 13579 ft | 356 kts | 71° |
| 2026-04-26 08:21 | 25.00528 | 55.51011 | 14188 ft | 360 kts | 70° |
| 2026-04-26 08:21 | 25.01409 | 55.53601 | 14789 ft | 363 kts | 70° |
| 2026-04-26 08:21 | 25.02283 | 55.56206 | 15373 ft | 367 kts | 71° |
| 2026-04-26 08:22 | 25.03181 | 55.58877 | 15777 ft | 376 kts | 70° |
| 2026-04-26 08:22 | 25.04061 | 55.61462 | 16178 ft | 383 kts | 70° |
| 2026-04-26 08:22 | 25.04721 | 55.63396 | 16608 ft | 385 kts | 70° |
| 2026-04-26 08:22 | 25.05658 | 55.66156 | 17332 ft | 383 kts | 70° |
| 2026-04-26 08:23 | 25.06587 | 55.68900 | 17983 ft | 384 kts | 70° |
| 2026-04-26 08:23 | 25.07522 | 55.71663 | 18506 ft | 386 kts | 70° |
| 2026-04-26 08:23 | 25.08465 | 55.74453 | 18947 ft | 392 kts | 70° |
| 2026-04-26 08:23 | 25.09416 | 55.77270 | 19394 ft | 397 kts | 70° |
| 2026-04-26 08:24 | 25.10383 | 55.80134 | 19907 ft | 400 kts | 70° |
| 2026-04-26 08:24 | 25.11354 | 55.83013 | 20471 ft | 402 kts | 70° |
| 2026-04-26 08:24 | 25.12327 | 55.85896 | 21028 ft | 403 kts | 70° |
| 2026-04-26 08:24 | 25.13310 | 55.88815 | 21491 ft | 407 kts | 69° |
| 2026-04-26 08:25 | 25.14301 | 55.91752 | 21791 ft | 415 kts | 69° |
| 2026-04-26 08:25 | 25.15318 | 55.94754 | 22135 ft | 421 kts | 69° |
| 2026-04-26 08:25 | 25.16344 | 55.97778 | 22611 ft | 423 kts | 69° |
| 2026-04-26 08:25 | 25.17379 | 56.00826 | 23144 ft | 424 kts | 69° |
| 2026-04-26 08:26 | 25.18393 | 56.03856 | 23656 ft | 425 kts | 69° |
| 2026-04-26 08:26 | 25.19421 | 56.06927 | 24121 ft | 427 kts | 69° |
| 2026-04-26 08:26 | 25.20447 | 56.10006 | 24527 ft | 431 kts | 69° |
| 2026-04-26 08:26 | 25.21452 | 56.13140 | 24910 ft | 435 kts | 72° |
| 2026-04-26 08:27 | 25.22295 | 56.16340 | 25300 ft | 438 kts | 75° |
| 2026-04-26 08:27 | 25.22994 | 56.19632 | 25711 ft | 441 kts | 78° |
| 2026-04-26 08:27 | 25.23588 | 56.22958 | 26137 ft | 443 kts | 79° |
| 2026-04-26 08:27 | 25.24136 | 56.26302 | 26561 ft | 445 kts | 79° |
| 2026-04-26 08:28 | 25.24680 | 56.29654 | 26968 ft | 447 kts | 79° |
| 2026-04-26 08:28 | 25.25246 | 56.33038 | 27358 ft | 448 kts | 78° |
| 2026-04-26 08:28 | 25.25831 | 56.36407 | 27727 ft | 450 kts | 78° |
| 2026-04-26 08:28 | 25.26438 | 56.39814 | 28059 ft | 453 kts | 78° |
| 2026-04-26 08:29 | 25.27051 | 56.43217 | 28365 ft | 456 kts | 78° |
| 2026-04-26 08:29 | 25.27680 | 56.46663 | 28668 ft | 458 kts | 78° |
| 2026-04-26 08:29 | 25.28312 | 56.50083 | 28966 ft | 461 kts | 78° |
| 2026-04-26 08:29 | 25.28951 | 56.53569 | 29269 ft | 463 kts | 78° |
| 2026-04-26 08:30 | 25.29598 | 56.57060 | 29570 ft | 465 kts | 77° |
| 2026-04-26 08:30 | 25.30172 | 56.60572 | 29870 ft | 467 kts | 82° |
| 2026-04-26 08:30 | 25.30455 | 56.64129 | 30170 ft | 468 kts | 87° |
| 2026-04-26 08:30 | 25.30499 | 56.67716 | 30473 ft | 469 kts | 89° |
| 2026-04-26 08:31 | 25.30511 | 56.71332 | 30774 ft | 470 kts | 89° |
| 2026-04-26 08:31 | 25.30499 | 56.74921 | 31072 ft | 471 kts | 90° |
| 2026-04-26 08:31 | 25.30442 | 56.78546 | 31372 ft | 471 kts | 91° |
| 2026-04-26 08:31 | 25.30338 | 56.82143 | 31686 ft | 471 kts | 92° |
| 2026-04-26 08:32 | 25.30199 | 56.85746 | 32026 ft | 470 kts | 92° |
| 2026-04-26 08:32 | 25.30040 | 56.89338 | 32352 ft | 469 kts | 92° |
| 2026-04-26 08:32 | 25.29868 | 56.92943 | 32656 ft | 469 kts | 92° |
| 2026-04-26 08:32 | 25.29698 | 56.96516 | 32953 ft | 468 kts | 92° |
| 2026-04-26 08:33 | 25.29545 | 57.00092 | 33250 ft | 467 kts | 92° |
| 2026-04-26 08:33 | 25.29402 | 57.03677 | 33548 ft | 466 kts | 92° |
| 2026-04-26 08:33 | 25.29265 | 57.07237 | 33844 ft | 464 kts | 92° |
| 2026-04-26 08:33 | 25.29131 | 57.10788 | 34139 ft | 463 kts | 92° |
| 2026-04-26 08:34 | 25.28999 | 57.14330 | 34417 ft | 463 kts | 92° |
| 2026-04-26 08:34 | 25.28868 | 57.17858 | 34664 ft | 462 kts | 92° |
| 2026-04-26 08:34 | 25.28737 | 57.21389 | 34857 ft | 462 kts | 92° |
| 2026-04-26 08:34 | 25.28606 | 57.24935 | 34970 ft | 464 kts | 92° |
| 2026-04-26 08:35 | 25.28549 | 57.26476 | 34985 ft | 466 kts | 92° |
| 2026-04-26 08:35 | 25.28096 | 57.38802 | 34992 ft | 483 kts | 92° |
| 2026-04-26 08:36 | 25.27822 | 57.46268 | 34994 ft | 492 kts | 92° |
| 2026-04-26 08:36 | 25.27547 | 57.53802 | 34992 ft | 491 kts | 92° |
| 2026-04-26 08:37 | 25.27272 | 57.61324 | 34993 ft | 491 kts | 92° |
| 2026-04-26 08:37 | 25.26997 | 57.68830 | 34993 ft | 491 kts | 92° |
| 2026-04-26 08:38 | 25.26722 | 57.76362 | 34993 ft | 491 kts | 91° |
| 2026-04-26 08:38 | 25.26472 | 57.83812 | 34993 ft | 486 kts | 91° |
| 2026-04-26 08:39 | 25.26181 | 57.91272 | 34995 ft | 486 kts | 92° |
| 2026-04-26 08:39 | 25.25885 | 57.98679 | 34992 ft | 482 kts | 93° |
| 2026-04-26 08:40 | 25.25607 | 58.06060 | 34993 ft | 483 kts | 93° |
| 2026-04-26 08:40 | 25.25336 | 58.13450 | 34992 ft | 483 kts | 93° |
| 2026-04-26 08:41 | 25.25065 | 58.20848 | 34992 ft | 483 kts | 93° |
| 2026-04-26 08:41 | 25.24781 | 58.28240 | 34993 ft | 483 kts | 93° |
| 2026-04-26 08:42 | 25.24507 | 58.35634 | 34993 ft | 483 kts | 93° |
| 2026-04-26 08:42 | 25.24237 | 58.43026 | 34995 ft | 483 kts | 93° |
| 2026-04-26 08:43 | 25.23968 | 58.50417 | 34994 ft | 483 kts | 93° |
| 2026-04-26 08:43 | 25.23694 | 58.57821 | 34997 ft | 483 kts | 93° |
| 2026-04-26 08:44 | 25.23366 | 58.65210 | 34994 ft | 482 kts | 94° |
| 2026-04-26 08:44 | 25.23028 | 58.72573 | 34994 ft | 481 kts | 94° |
| 2026-04-26 08:45 | 25.22686 | 58.79940 | 34998 ft | 482 kts | 94° |
| 2026-04-26 08:45 | 25.22364 | 58.87311 | 34994 ft | 482 kts | 94° |
| 2026-04-26 08:46 | 25.22045 | 58.94660 | 34993 ft | 482 kts | 94° |
| 2026-04-26 08:46 | 25.21723 | 59.02029 | 35000 ft | 482 kts | 93° |
| 2026-04-26 08:47 | 25.21407 | 59.09380 | 34998 ft | 482 kts | 94° |
| 2026-04-26 08:47 | 25.21096 | 59.16769 | 34993 ft | 482 kts | 94° |
| 2026-04-26 08:48 | 25.20791 | 59.24136 | 35000 ft | 481 kts | 94° |
| 2026-04-26 08:48 | 25.20489 | 59.31496 | 35001 ft | 482 kts | 94° |
| 2026-04-26 08:49 | 25.20171 | 59.38875 | 34993 ft | 482 kts | 94° |
| 2026-04-26 08:49 | 25.19826 | 59.46251 | 34999 ft | 481 kts | 94° |
| 2026-04-26 08:50 | 25.19425 | 59.53588 | 35005 ft | 481 kts | 94° |
| 2026-04-26 08:50 | 25.19043 | 59.60962 | 34994 ft | 482 kts | 94° |
| 2026-04-26 08:51 | 25.18492 | 59.72009 | 35005 ft | 482 kts | 94° |
| 2026-04-26 08:52 | 25.18115 | 59.79364 | 35003 ft | 482 kts | 94° |
| 2026-04-26 08:52 | 25.17747 | 59.86737 | 34993 ft | 482 kts | 94° |
| 2026-04-26 08:53 | 25.17383 | 59.94118 | 35003 ft | 482 kts | 94° |
| 2026-04-26 08:53 | 25.17022 | 60.01467 | 35016 ft | 481 kts | 94° |
| 2026-04-26 08:54 | 25.16659 | 60.08841 | 35059 ft | 481 kts | 94° |
| 2026-04-26 08:54 | 25.16265 | 60.16199 | 35068 ft | 481 kts | 95° |
| 2026-04-26 08:55 | 25.15841 | 60.23552 | 35069 ft | 481 kts | 94° |
| 2026-04-26 08:55 | 25.15421 | 60.30890 | 35080 ft | 481 kts | 94° |
| 2026-04-26 08:56 | 25.15003 | 60.38256 | 35080 ft | 481 kts | 94° |
| 2026-04-26 08:56 | 25.14590 | 60.45589 | 35081 ft | 481 kts | 94° |
| 2026-04-26 08:57 | 25.14180 | 60.52947 | 35081 ft | 481 kts | 94° |
| 2026-04-26 08:57 | 25.13761 | 60.60312 | 35081 ft | 481 kts | 95° |
| 2026-04-26 08:58 | 25.13327 | 60.67661 | 35085 ft | 482 kts | 95° |
| 2026-04-26 08:58 | 25.12865 | 60.75000 | 35080 ft | 481 kts | 95° |
| 2026-04-26 08:59 | 25.12392 | 60.82349 | 35081 ft | 481 kts | 95° |
| 2026-04-26 08:59 | 25.11916 | 60.89695 | 35081 ft | 481 kts | 95° |
| 2026-04-26 09:00 | 25.11439 | 60.97043 | 35081 ft | 482 kts | 95° |
| 2026-04-26 09:00 | 25.10960 | 61.04410 | 35083 ft | 482 kts | 95° |
| 2026-04-26 09:01 | 25.10520 | 61.11758 | 35081 ft | 481 kts | 94° |
| 2026-04-26 09:01 | 25.10083 | 61.19097 | 35081 ft | 481 kts | 94° |
| 2026-04-26 09:02 | 25.09633 | 61.26437 | 35081 ft | 481 kts | 93° |
| 2026-04-26 09:02 | 25.09188 | 61.33775 | 35081 ft | 481 kts | 93° |
| 2026-04-26 09:03 | 25.08747 | 61.41104 | 35081 ft | 481 kts | 93° |
| 2026-04-26 09:03 | 25.08295 | 61.48457 | 35081 ft | 481 kts | 94° |
| 2026-04-26 09:04 | 25.07814 | 61.55784 | 35081 ft | 481 kts | 94° |
| 2026-04-26 09:04 | 25.07381 | 61.63135 | 35081 ft | 481 kts | 93° |
| 2026-04-26 09:05 | 25.06933 | 61.70458 | 35081 ft | 481 kts | 93° |
| 2026-04-26 09:05 | 25.06497 | 61.77815 | 35081 ft | 481 kts | 94° |
| 2026-04-26 09:06 | 25.05767 | 61.85108 | 35082 ft | 481 kts | 99° |
| 2026-04-26 09:06 | 25.04516 | 61.92355 | 35082 ft | 481 kts | 102° |
| 2026-04-26 09:07 | 25.03105 | 61.99533 | 35081 ft | 481 kts | 102° |
| 2026-04-26 09:07 | 25.01756 | 62.06739 | 35081 ft | 481 kts | 101° |
| 2026-04-26 09:08 | 25.00509 | 62.13982 | 35081 ft | 481 kts | 100° |
| 2026-04-26 09:08 | 24.99307 | 62.21206 | 35081 ft | 481 kts | 100° |
| 2026-04-26 09:09 | 24.98115 | 62.28456 | 35081 ft | 481 kts | 100° |
| 2026-04-26 09:09 | 24.96928 | 62.35693 | 35081 ft | 481 kts | 100° |
| 2026-04-26 09:10 | 24.95711 | 62.42923 | 35081 ft | 481 kts | 100° |
| 2026-04-26 09:10 | 24.94509 | 62.50157 | 35081 ft | 481 kts | 100° |
| 2026-04-26 09:11 | 24.93305 | 62.57377 | 35081 ft | 481 kts | 100° |
| 2026-04-26 09:11 | 24.92038 | 62.64607 | 35081 ft | 481 kts | 101° |
| 2026-04-26 09:12 | 24.90761 | 62.71825 | 35083 ft | 482 kts | 101° |
| 2026-04-26 09:12 | 24.89488 | 62.79038 | 35079 ft | 481 kts | 101° |
| 2026-04-26 09:13 | 24.88227 | 62.86237 | 35078 ft | 481 kts | 101° |
| 2026-04-26 09:13 | 24.86962 | 62.93470 | 35077 ft | 481 kts | 101° |
| 2026-04-26 09:14 | 24.85705 | 63.00674 | 35077 ft | 481 kts | 101° |
| 2026-04-26 09:14 | 24.84449 | 63.07896 | 35074 ft | 481 kts | 101° |
| 2026-04-26 09:15 | 24.83196 | 63.15113 | 35074 ft | 481 kts | 101° |
| 2026-04-26 09:15 | 24.81947 | 63.22323 | 35074 ft | 481 kts | 100° |
| 2026-04-26 09:16 | 24.80698 | 63.29557 | 35073 ft | 481 kts | 100° |
| 2026-04-26 09:16 | 24.79455 | 63.36776 | 35071 ft | 481 kts | 100° |
| 2026-04-26 09:17 | 24.78214 | 63.43979 | 35070 ft | 481 kts | 101° |
| 2026-04-26 09:17 | 24.76941 | 63.51202 | 35070 ft | 481 kts | 101° |
| 2026-04-26 09:18 | 24.75643 | 63.58409 | 35065 ft | 481 kts | 101° |
| 2026-04-26 09:18 | 24.74329 | 63.65598 | 35064 ft | 481 kts | 101° |
| 2026-04-26 09:19 | 24.73025 | 63.72796 | 35065 ft | 481 kts | 101° |
| 2026-04-26 09:19 | 24.71721 | 63.80011 | 35063 ft | 481 kts | 101° |
| 2026-04-26 09:20 | 24.70424 | 63.87199 | 35062 ft | 481 kts | 101° |
| 2026-04-26 09:20 | 24.69122 | 63.94413 | 35062 ft | 481 kts | 101° |
| 2026-04-26 09:21 | 24.67822 | 64.01614 | 35061 ft | 481 kts | 101° |
| 2026-04-26 09:21 | 24.66525 | 64.08801 | 35060 ft | 481 kts | 101° |
| 2026-04-26 09:22 | 24.65224 | 64.16013 | 35059 ft | 481 kts | 101° |
| 2026-04-26 09:22 | 24.63928 | 64.23199 | 35058 ft | 481 kts | 101° |
| 2026-04-26 09:23 | 24.62635 | 64.30410 | 35056 ft | 481 kts | 101° |
| 2026-04-26 09:23 | 24.61284 | 64.37583 | 35055 ft | 481 kts | 101° |
| 2026-04-26 09:24 | 24.59944 | 64.44782 | 35049 ft | 481 kts | 101° |
| 2026-04-26 09:24 | 24.58621 | 64.51965 | 35033 ft | 481 kts | 101° |
| 2026-04-26 09:25 | 24.57288 | 64.59155 | 35028 ft | 481 kts | 101° |
| 2026-04-26 09:25 | 24.55963 | 64.66343 | 35026 ft | 482 kts | 101° |
| 2026-04-26 09:26 | 24.54643 | 64.73538 | 35024 ft | 483 kts | 101° |
| 2026-04-26 09:26 | 24.53291 | 64.80814 | 35020 ft | 492 kts | 100° |
| 2026-04-26 09:27 | 24.52085 | 64.88274 | 35022 ft | 501 kts | 95° |
| 2026-04-26 09:27 | 24.51388 | 64.95895 | 35022 ft | 503 kts | 95° |
| 2026-04-26 09:27 | 24.51129 | 64.99662 | 35018 ft | 490 kts | 95° |
| 2026-04-26 09:28 | 24.50872 | 65.03367 | 35017 ft | 484 kts | 95° |
| 2026-04-26 09:28 | 24.50299 | 65.10682 | 35017 ft | 483 kts | 96° |
| 2026-04-26 09:29 | 24.49627 | 65.17995 | 35018 ft | 482 kts | 97° |
| 2026-04-26 09:29 | 24.48929 | 65.25311 | 35013 ft | 482 kts | 97° |
| 2026-04-26 09:30 | 24.48228 | 65.32612 | 35011 ft | 482 kts | 97° |
| 2026-04-26 09:30 | 24.47524 | 65.39937 | 35010 ft | 490 kts | 96° |
| 2026-04-26 09:31 | 24.46837 | 65.47413 | 35010 ft | 494 kts | 96° |
| 2026-04-26 09:31 | 24.46167 | 65.54874 | 35008 ft | 493 kts | 96° |
| 2026-04-26 09:32 | 24.45488 | 65.62353 | 35007 ft | 495 kts | 98° |
| 2026-04-26 09:32 | 24.44751 | 65.69910 | 35005 ft | 500 kts | 99° |
| 2026-04-26 09:33 | 24.44016 | 65.77462 | 35004 ft | 500 kts | 99° |
| 2026-04-26 09:33 | 24.43234 | 65.85043 | 35004 ft | 500 kts | 98° |
| 2026-04-26 09:34 | 24.42467 | 65.92510 | 35001 ft | 488 kts | 98° |
| 2026-04-26 09:34 | 24.41728 | 65.99888 | 35001 ft | 489 kts | 97° |
| 2026-04-26 09:35 | 24.40992 | 66.07298 | 35000 ft | 490 kts | 97° |
| 2026-04-26 09:35 | 24.40269 | 66.14707 | 34999 ft | 490 kts | 97° |
| 2026-04-26 09:36 | 24.39537 | 66.22112 | 34998 ft | 490 kts | 97° |
| 2026-04-26 09:36 | 24.38815 | 66.29479 | 34997 ft | 481 kts | 98° |
| 2026-04-26 09:37 | 24.38104 | 66.36751 | 34997 ft | 482 kts | 97° |
| 2026-04-26 09:37 | 24.37395 | 66.44045 | 34997 ft | 482 kts | 97° |
| 2026-04-26 09:38 | 24.36674 | 66.51332 | 34996 ft | 482 kts | 98° |
| 2026-04-26 09:38 | 24.35922 | 66.58626 | 34995 ft | 482 kts | 98° |
| 2026-04-26 09:39 | 24.35160 | 66.65898 | 34995 ft | 482 kts | 98° |
| 2026-04-26 09:39 | 24.34388 | 66.73218 | 34993 ft | 488 kts | 98° |
| 2026-04-26 09:40 | 24.33592 | 66.80635 | 34996 ft | 493 kts | 98° |
| 2026-04-26 09:40 | 24.32840 | 66.88084 | 34994 ft | 493 kts | 97° |
| 2026-04-26 09:41 | 24.32068 | 66.95541 | 34994 ft | 493 kts | 97° |
| 2026-04-26 09:41 | 24.31465 | 67.01542 | 34994 ft | 493 kts | 97° |
| 2026-04-26 09:42 | 24.30687 | 67.08983 | 34994 ft | 493 kts | 98° |
| 2026-04-26 09:42 | 24.29846 | 67.16426 | 34999 ft | 497 kts | 99° |
| 2026-04-26 09:43 | 24.28967 | 67.24003 | 34995 ft | 510 kts | 99° |
| 2026-04-26 09:43 | 24.28099 | 67.31766 | 34994 ft | 516 kts | 100° |
| 2026-04-26 09:44 | 24.27225 | 67.39540 | 34994 ft | 515 kts | 99° |
| 2026-04-26 09:44 | 24.26391 | 67.47296 | 34989 ft | 502 kts | 98° |
| 2026-04-26 09:44 | 24.26001 | 67.51014 | 34988 ft | 489 kts | 98° |
| 2026-04-26 09:45 | 24.25609 | 67.54697 | 34991 ft | 485 kts | 98° |
| 2026-04-26 09:45 | 24.24812 | 67.62030 | 34994 ft | 488 kts | 98° |
| 2026-04-26 09:46 | 24.24001 | 67.69397 | 34993 ft | 488 kts | 98° |
| 2026-04-26 09:46 | 24.23188 | 67.76759 | 34993 ft | 488 kts | 98° |
| 2026-04-26 09:47 | 24.22489 | 67.83400 | 34993 ft | 493 kts | 96° |
| 2026-04-26 09:47 | 24.21686 | 67.90834 | 34993 ft | 492 kts | 97° |
| 2026-04-26 09:48 | 24.20792 | 67.98263 | 34972 ft | 495 kts | 97° |
| 2026-04-26 09:48 | 24.20020 | 68.04765 | 34966 ft | 498 kts | 97° |
| 2026-04-26 09:49 | 24.19175 | 68.12108 | 34966 ft | 507 kts | 97° |
| 2026-04-26 09:49 | 24.18413 | 68.18778 | 34963 ft | 510 kts | 98° |
| 2026-04-26 09:50 | 24.17528 | 68.26522 | 34963 ft | 514 kts | 98° |
| 2026-04-26 09:50 | 24.16651 | 68.34247 | 34963 ft | 513 kts | 98° |
| 2026-04-26 09:51 | 24.15771 | 68.41982 | 34963 ft | 513 kts | 98° |
| 2026-04-26 09:51 | 24.14887 | 68.49732 | 34963 ft | 514 kts | 98° |
| 2026-04-26 09:52 | 24.14010 | 68.57455 | 34963 ft | 513 kts | 98° |
| 2026-04-26 09:52 | 24.12623 | 68.69049 | 34963 ft | 513 kts | 98° |
| 2026-04-26 09:53 | 24.11712 | 68.76779 | 34963 ft | 512 kts | 101° |
| 2026-04-26 09:53 | 24.10207 | 68.84435 | 34965 ft | 518 kts | 110° |
| 2026-04-26 09:54 | 24.08061 | 68.91960 | 34965 ft | 522 kts | 113° |
| 2026-04-26 09:54 | 24.05783 | 68.99490 | 34963 ft | 522 kts | 112° |
| 2026-04-26 09:55 | 24.03653 | 69.07071 | 34963 ft | 523 kts | 111° |
| 2026-04-26 09:55 | 24.01649 | 69.14720 | 34963 ft | 524 kts | 110° |
| 2026-04-26 09:56 | 23.99690 | 69.22380 | 34963 ft | 524 kts | 110° |
| 2026-04-26 09:56 | 23.97748 | 69.30027 | 34963 ft | 524 kts | 110° |
| 2026-04-26 09:57 | 23.95761 | 69.37674 | 34962 ft | 524 kts | 110° |
| 2026-04-26 09:57 | 23.93752 | 69.45309 | 34963 ft | 524 kts | 110° |
| 2026-04-26 09:58 | 23.91782 | 69.52977 | 34963 ft | 524 kts | 110° |
| 2026-04-26 09:58 | 23.89780 | 69.60603 | 34963 ft | 524 kts | 111° |
| 2026-04-26 09:59 | 23.87744 | 69.68230 | 34963 ft | 524 kts | 111° |
| 2026-04-26 09:59 | 23.85698 | 69.75854 | 34963 ft | 524 kts | 111° |
| 2026-04-26 10:00 | 23.83650 | 69.83473 | 34963 ft | 524 kts | 111° |
| 2026-04-26 10:00 | 23.81600 | 69.91097 | 34963 ft | 524 kts | 111° |
| 2026-04-26 10:01 | 23.79551 | 69.98713 | 34963 ft | 524 kts | 111° |
| 2026-04-26 10:01 | 23.77502 | 70.06327 | 34963 ft | 524 kts | 111° |
| 2026-04-26 10:02 | 23.75451 | 70.13945 | 34963 ft | 524 kts | 111° |
| 2026-04-26 10:02 | 23.73397 | 70.21576 | 34963 ft | 524 kts | 111° |
| 2026-04-26 10:03 | 23.71384 | 70.29192 | 34962 ft | 525 kts | 110° |
| 2026-04-26 10:03 | 23.69384 | 70.36827 | 34960 ft | 525 kts | 111° |
| 2026-04-26 10:04 | 23.67330 | 70.44441 | 34960 ft | 524 kts | 111° |
| 2026-04-26 10:04 | 23.65213 | 70.52031 | 34960 ft | 524 kts | 111° |
| 2026-04-26 10:05 | 23.63127 | 70.59647 | 34959 ft | 525 kts | 111° |
| 2026-04-26 10:05 | 23.61069 | 70.67245 | 34959 ft | 525 kts | 111° |
| 2026-04-26 10:06 | 23.59001 | 70.74852 | 34959 ft | 524 kts | 111° |
| 2026-04-26 10:06 | 23.56920 | 70.82448 | 34958 ft | 525 kts | 111° |
| 2026-04-26 10:07 | 23.54860 | 70.90054 | 34957 ft | 525 kts | 111° |
| 2026-04-26 10:07 | 23.52792 | 70.97681 | 34957 ft | 525 kts | 111° |
| 2026-04-26 10:08 | 23.50702 | 71.05250 | 34954 ft | 521 kts | 112° |
| 2026-04-26 10:08 | 23.48622 | 71.12782 | 34954 ft | 521 kts | 112° |
| 2026-04-26 10:09 | 23.46533 | 71.20336 | 34954 ft | 521 kts | 112° |
| 2026-04-26 10:09 | 23.44450 | 71.27859 | 34953 ft | 521 kts | 112° |
| 2026-04-26 10:10 | 23.42359 | 71.35414 | 34952 ft | 521 kts | 112° |
| 2026-04-26 10:10 | 23.40285 | 71.42961 | 34952 ft | 522 kts | 112° |
| 2026-04-26 10:11 | 23.38242 | 71.50511 | 34950 ft | 522 kts | 112° |
| 2026-04-26 10:11 | 23.36155 | 71.58077 | 34943 ft | 522 kts | 112° |
| 2026-04-26 10:12 | 23.34087 | 71.65652 | 34943 ft | 523 kts | 112° |
| 2026-04-26 10:12 | 23.32042 | 71.73197 | 34942 ft | 522 kts | 112° |
| 2026-04-26 10:13 | 23.29939 | 71.80743 | 34939 ft | 522 kts | 112° |
| 2026-04-26 10:13 | 23.27808 | 71.88275 | 34940 ft | 522 kts | 113° |
| 2026-04-26 10:14 | 23.25671 | 71.95792 | 34940 ft | 522 kts | 113° |
| 2026-04-26 10:14 | 23.23528 | 72.03320 | 34937 ft | 522 kts | 112° |
| 2026-04-26 10:15 | 23.21422 | 72.10860 | 34937 ft | 522 kts | 112° |
| 2026-04-26 10:15 | 23.19297 | 72.18377 | 34936 ft | 522 kts | 113° |
| 2026-04-26 10:16 | 23.17184 | 72.25926 | 34934 ft | 522 kts | 112° |
| 2026-04-26 10:16 | 23.15070 | 72.33458 | 34934 ft | 522 kts | 113° |
| 2026-04-26 10:17 | 23.12961 | 72.40990 | 34934 ft | 522 kts | 112° |
| 2026-04-26 10:17 | 23.10866 | 72.48505 | 34934 ft | 522 kts | 112° |
| 2026-04-26 10:18 | 23.08758 | 72.56035 | 34934 ft | 522 kts | 112° |
| 2026-04-26 10:18 | 23.06675 | 72.63573 | 34934 ft | 522 kts | 112° |
| 2026-04-26 10:19 | 23.04550 | 72.71096 | 34934 ft | 522 kts | 113° |
| 2026-04-26 10:19 | 23.02358 | 72.78580 | 34934 ft | 521 kts | 113° |
| 2026-04-26 10:20 | 23.00176 | 72.86084 | 34934 ft | 522 kts | 113° |
| 2026-04-26 10:20 | 22.98022 | 72.93586 | 34934 ft | 522 kts | 113° |
| 2026-04-26 10:21 | 22.95877 | 73.01087 | 34934 ft | 522 kts | 113° |
| 2026-04-26 10:21 | 22.93707 | 73.08566 | 34934 ft | 522 kts | 113° |
| 2026-04-26 10:22 | 22.91555 | 73.16053 | 34934 ft | 522 kts | 113° |
| 2026-04-26 10:22 | 22.89407 | 73.23562 | 34934 ft | 522 kts | 113° |
| 2026-04-26 10:23 | 22.87267 | 73.31048 | 34934 ft | 522 kts | 113° |
| 2026-04-26 10:23 | 22.85114 | 73.38540 | 34934 ft | 521 kts | 113° |
| 2026-04-26 10:24 | 22.82896 | 73.46010 | 34934 ft | 521 kts | 114° |
| 2026-04-26 10:24 | 22.80700 | 73.53477 | 34934 ft | 521 kts | 114° |
| 2026-04-26 10:25 | 22.78488 | 73.60916 | 34934 ft | 521 kts | 113° |
| 2026-04-26 10:25 | 22.76291 | 73.68416 | 34934 ft | 521 kts | 114° |
| 2026-04-26 10:26 | 22.74086 | 73.75851 | 34934 ft | 521 kts | 113° |
| 2026-04-26 10:26 | 22.71912 | 73.83301 | 34934 ft | 521 kts | 114° |
| 2026-04-26 10:27 | 22.69704 | 73.90763 | 34934 ft | 521 kts | 113° |
| 2026-04-26 10:27 | 22.67536 | 73.98223 | 34934 ft | 521 kts | 113° |
| 2026-04-26 10:28 | 22.65331 | 74.05694 | 34934 ft | 521 kts | 113° |
| 2026-04-26 10:28 | 22.63165 | 74.13166 | 34939 ft | 522 kts | 113° |
| 2026-04-26 10:29 | 22.60968 | 74.20624 | 34936 ft | 521 kts | 114° |
| 2026-04-26 10:29 | 22.58764 | 74.28098 | 34931 ft | 524 kts | 114° |
| 2026-04-26 10:30 | 22.56541 | 74.35594 | 34941 ft | 524 kts | 115° |
| 2026-04-26 10:30 | 22.54285 | 74.43072 | 34940 ft | 524 kts | 114° |
| 2026-04-26 10:31 | 22.52073 | 74.50563 | 34934 ft | 524 kts | 114° |
| 2026-04-26 10:31 | 22.49839 | 74.58018 | 34945 ft | 525 kts | 114° |
| 2026-04-26 10:32 | 22.47607 | 74.65559 | 34973 ft | 525 kts | 114° |
| 2026-04-26 10:32 | 22.45570 | 74.72450 | 34967 ft | 525 kts | 114° |
| 2026-04-26 10:33 | 22.43341 | 74.79926 | 34975 ft | 525 kts | 114° |
| 2026-04-26 10:33 | 22.41130 | 74.87451 | 34982 ft | 526 kts | 114° |
| 2026-04-26 10:34 | 22.38903 | 74.94961 | 34974 ft | 525 kts | 115° |
| 2026-04-26 10:34 | 22.36665 | 75.02423 | 34976 ft | 525 kts | 115° |
| 2026-04-26 10:35 | 22.34386 | 75.09910 | 34989 ft | 525 kts | 115° |
| 2026-04-26 10:35 | 22.32096 | 75.17366 | 34991 ft | 525 kts | 115° |
| 2026-04-26 10:36 | 22.29826 | 75.24843 | 34993 ft | 525 kts | 114° |
| 2026-04-26 10:36 | 22.27561 | 75.32326 | 34993 ft | 525 kts | 115° |
| 2026-04-26 10:37 | 22.25283 | 75.39799 | 34993 ft | 525 kts | 114° |
| 2026-04-26 10:37 | 22.23042 | 75.47259 | 34993 ft | 525 kts | 115° |
| 2026-04-26 10:38 | 22.20761 | 75.54751 | 34993 ft | 525 kts | 114° |
| 2026-04-26 10:38 | 22.18525 | 75.62230 | 34993 ft | 525 kts | 114° |
| 2026-04-26 10:39 | 22.16256 | 75.69701 | 34995 ft | 526 kts | 114° |
| 2026-04-26 10:39 | 22.14028 | 75.77174 | 34992 ft | 525 kts | 114° |
| 2026-04-26 10:40 | 22.11770 | 75.84648 | 34993 ft | 523 kts | 114° |
| 2026-04-26 10:40 | 22.09487 | 75.92022 | 34992 ft | 519 kts | 115° |
| 2026-04-26 10:41 | 22.07198 | 75.99399 | 34994 ft | 520 kts | 114° |
| 2026-04-26 10:41 | 22.04867 | 76.06752 | 34993 ft | 519 kts | 115° |
| 2026-04-26 10:42 | 22.02423 | 76.14052 | 34993 ft | 518 kts | 116° |
| 2026-04-26 10:42 | 21.99971 | 76.21319 | 34993 ft | 518 kts | 116° |
| 2026-04-26 10:43 | 21.97524 | 76.28612 | 34993 ft | 518 kts | 116° |
| 2026-04-26 10:43 | 21.95086 | 76.35894 | 34994 ft | 519 kts | 116° |
| 2026-04-26 10:44 | 21.92682 | 76.43204 | 34993 ft | 519 kts | 115° |
| 2026-04-26 10:44 | 21.90270 | 76.50512 | 34993 ft | 519 kts | 116° |
| 2026-04-26 10:45 | 21.87872 | 76.57801 | 34993 ft | 519 kts | 116° |
| 2026-04-26 10:45 | 21.85444 | 76.65099 | 34993 ft | 518 kts | 116° |
| 2026-04-26 10:46 | 21.82985 | 76.72382 | 34993 ft | 518 kts | 116° |
| 2026-04-26 10:46 | 21.80521 | 76.79651 | 34993 ft | 518 kts | 116° |
| 2026-04-26 10:47 | 21.78168 | 76.86648 | 34993 ft | 518 kts | 116° |
| 2026-04-26 10:47 | 21.75872 | 76.93491 | 34993 ft | 518 kts | 116° |
| 2026-04-26 10:48 | 21.73434 | 77.00760 | 34993 ft | 518 kts | 116° |
| 2026-04-26 10:48 | 21.70993 | 77.08037 | 34993 ft | 518 kts | 116° |
| 2026-04-26 10:49 | 21.68554 | 77.15309 | 34993 ft | 518 kts | 116° |
| 2026-04-26 10:49 | 21.66117 | 77.22573 | 34993 ft | 518 kts | 116° |
| 2026-04-26 10:50 | 21.64079 | 77.28633 | 34993 ft | 518 kts | 116° |
| 2026-04-26 10:50 | 21.61197 | 77.37089 | 34993 ft | 518 kts | 116° |
| 2026-04-26 10:51 | 21.57695 | 77.47810 | 34993 ft | 502 kts | 114° |
| 2026-04-26 10:52 | 21.55403 | 77.54907 | 34993 ft | 504 kts | 114° |
| 2026-04-26 10:52 | 21.53131 | 77.62006 | 34993 ft | 503 kts | 114° |
| 2026-04-26 10:53 | 21.50877 | 77.69093 | 34993 ft | 504 kts | 113° |
| 2026-04-26 10:53 | 21.48658 | 77.76212 | 34993 ft | 504 kts | 113° |
| 2026-04-26 10:54 | 21.45351 | 77.86902 | 34993 ft | 503 kts | 113° |
| 2026-04-26 10:54 | 21.43160 | 77.93999 | 34993 ft | 503 kts | 113° |
| 2026-04-26 10:55 | 21.40933 | 78.01146 | 34993 ft | 511 kts | 114° |
| 2026-04-26 10:55 | 21.38633 | 78.08420 | 34993 ft | 517 kts | 115° |
| 2026-04-26 10:56 | 21.36357 | 78.15701 | 34992 ft | 517 kts | 114° |
| 2026-04-26 10:56 | 21.34116 | 78.23008 | 34993 ft | 517 kts | 114° |
| 2026-04-26 10:57 | 21.31838 | 78.30300 | 34993 ft | 516 kts | 114° |
| 2026-04-26 10:57 | 21.29597 | 78.37589 | 34993 ft | 516 kts | 114° |
| 2026-04-26 10:58 | 21.27337 | 78.44875 | 34993 ft | 515 kts | 115° |
| 2026-04-26 10:58 | 21.25038 | 78.52125 | 34993 ft | 514 kts | 115° |
| 2026-04-26 10:59 | 21.22744 | 78.59349 | 34993 ft | 514 kts | 114° |
| 2026-04-26 10:59 | 21.20480 | 78.66610 | 34993 ft | 514 kts | 115° |
| 2026-04-26 11:00 | 21.18204 | 78.73840 | 34995 ft | 514 kts | 114° |
| 2026-04-26 11:00 | 21.15926 | 78.81057 | 34991 ft | 511 kts | 115° |
| 2026-04-26 11:01 | 21.13637 | 78.88252 | 34993 ft | 513 kts | 115° |
| 2026-04-26 11:01 | 21.11375 | 78.95495 | 34998 ft | 515 kts | 115° |
| 2026-04-26 11:02 | 21.09119 | 79.02646 | 34988 ft | 487 kts | 108° |
| 2026-04-26 11:02 | 21.08078 | 79.05997 | 34997 ft | 465 kts | 108° |
| 2026-04-26 11:02 | 21.07097 | 79.09259 | 34994 ft | 459 kts | 107° |
| 2026-04-26 11:03 | 21.05230 | 79.15797 | 34957 ft | 468 kts | 106° |
| 2026-04-26 11:03 | 21.03334 | 79.22557 | 34907 ft | 481 kts | 108° |
| 2026-04-26 11:04 | 21.01361 | 79.29490 | 34908 ft | 493 kts | 111° |
| 2026-04-26 11:04 | 20.99318 | 79.36567 | 34907 ft | 504 kts | 112° |
| 2026-04-26 11:05 | 20.97241 | 79.43710 | 34904 ft | 504 kts | 112° |
| 2026-04-26 11:05 | 20.95200 | 79.50866 | 34904 ft | 504 kts | 111° |
| 2026-04-26 11:06 | 20.93161 | 79.57997 | 34904 ft | 504 kts | 112° |
| 2026-04-26 11:06 | 20.91122 | 79.65156 | 34904 ft | 504 kts | 111° |
| 2026-04-26 11:07 | 20.89079 | 79.72302 | 34904 ft | 504 kts | 111° |
| 2026-04-26 11:07 | 20.87057 | 79.79458 | 34904 ft | 504 kts | 111° |
| 2026-04-26 11:08 | 20.85028 | 79.86608 | 34904 ft | 504 kts | 111° |
| 2026-04-26 11:08 | 20.82974 | 79.93729 | 34904 ft | 503 kts | 112° |
| 2026-04-26 11:09 | 20.80870 | 80.00862 | 34904 ft | 503 kts | 112° |
| 2026-04-26 11:09 | 20.78782 | 80.07982 | 34904 ft | 503 kts | 112° |
| 2026-04-26 11:10 | 20.76706 | 80.15091 | 34904 ft | 503 kts | 112° |
| 2026-04-26 11:10 | 20.74629 | 80.22216 | 34904 ft | 503 kts | 112° |
| 2026-04-26 11:11 | 20.72556 | 80.29333 | 34902 ft | 500 kts | 112° |
| 2026-04-26 11:11 | 20.70484 | 80.36445 | 34905 ft | 504 kts | 112° |
| 2026-04-26 11:12 | 20.68410 | 80.43560 | 34904 ft | 503 kts | 112° |
| 2026-04-26 11:12 | 20.66332 | 80.50686 | 34904 ft | 503 kts | 112° |
| 2026-04-26 11:13 | 20.64258 | 80.57798 | 34904 ft | 503 kts | 112° |
| 2026-04-26 11:13 | 20.62177 | 80.64914 | 34904 ft | 503 kts | 112° |
| 2026-04-26 11:14 | 20.60049 | 80.72027 | 34904 ft | 503 kts | 112° |
| 2026-04-26 11:14 | 20.57937 | 80.79124 | 34904 ft | 503 kts | 112° |
| 2026-04-26 11:15 | 20.55839 | 80.86221 | 34904 ft | 503 kts | 112° |
| 2026-04-26 11:15 | 20.53724 | 80.93330 | 34903 ft | 504 kts | 111° |
| 2026-04-26 11:16 | 20.51593 | 81.00488 | 34905 ft | 509 kts | 110° |
| 2026-04-26 11:16 | 20.49474 | 81.07695 | 34904 ft | 510 kts | 110° |
| 2026-04-26 11:17 | 20.47341 | 81.14878 | 34906 ft | 510 kts | 110° |
| 2026-04-26 11:17 | 20.45223 | 81.22079 | 34903 ft | 509 kts | 110° |
| 2026-04-26 11:18 | 20.43081 | 81.29265 | 34904 ft | 510 kts | 110° |
| 2026-04-26 11:18 | 20.40972 | 81.36460 | 34904 ft | 510 kts | 110° |
| 2026-04-26 11:19 | 20.38875 | 81.43656 | 34904 ft | 510 kts | 110° |
| 2026-04-26 11:19 | 20.36781 | 81.50855 | 34904 ft | 510 kts | 110° |
| 2026-04-26 11:20 | 20.35041 | 81.56838 | 34904 ft | 510 kts | 110° |
| 2026-04-26 11:20 | 20.32594 | 81.65257 | 34904 ft | 510 kts | 110° |
| 2026-04-26 11:21 | 20.30501 | 81.72456 | 34904 ft | 510 kts | 110° |
| 2026-04-26 11:21 | 20.28410 | 81.79646 | 34904 ft | 510 kts | 110° |
| 2026-04-26 11:22 | 20.26316 | 81.86847 | 34904 ft | 510 kts | 110° |
| 2026-04-26 11:22 | 20.24225 | 81.94036 | 34904 ft | 510 kts | 110° |
| 2026-04-26 11:23 | 20.22153 | 82.01224 | 34904 ft | 510 kts | 110° |
| 2026-04-26 11:23 | 20.19790 | 82.08317 | 34903 ft | 508 kts | 114° |
| 2026-04-26 11:24 | 20.17172 | 82.15279 | 34902 ft | 508 kts | 115° |
| 2026-04-26 11:24 | 20.14515 | 82.22224 | 34901 ft | 508 kts | 115° |
| 2026-04-26 11:25 | 20.11936 | 82.29189 | 34896 ft | 508 kts | 114° |
| 2026-04-26 11:25 | 20.09392 | 82.36197 | 34891 ft | 508 kts | 114° |
| 2026-04-26 11:26 | 20.06886 | 82.43202 | 34892 ft | 508 kts | 114° |
| 2026-04-26 11:26 | 20.04372 | 82.50187 | 34896 ft | 509 kts | 114° |
| 2026-04-26 11:27 | 20.01838 | 82.57214 | 34872 ft | 508 kts | 114° |
| 2026-04-26 11:27 | 19.99325 | 82.64212 | 34872 ft | 509 kts | 114° |
| 2026-04-26 11:28 | 19.96814 | 82.71234 | 34872 ft | 509 kts | 114° |
| 2026-04-26 11:28 | 19.94341 | 82.78258 | 34870 ft | 509 kts | 114° |
| 2026-04-26 11:29 | 19.91811 | 82.85256 | 34870 ft | 508 kts | 114° |
| 2026-04-26 11:29 | 19.89215 | 82.92222 | 34871 ft | 508 kts | 114° |
| 2026-04-26 11:30 | 19.87109 | 82.98003 | 34871 ft | 509 kts | 114° |
| 2026-04-26 11:30 | 19.84210 | 83.06192 | 34868 ft | 504 kts | 113° |
| 2026-04-26 11:31 | 19.81737 | 83.13153 | 34867 ft | 505 kts | 113° |
| 2026-04-26 11:31 | 19.79248 | 83.20096 | 34866 ft | 505 kts | 113° |
| 2026-04-26 11:32 | 19.76742 | 83.27030 | 34866 ft | 505 kts | 113° |
| 2026-04-26 11:32 | 19.74246 | 83.34002 | 34865 ft | 505 kts | 113° |
| 2026-04-26 11:33 | 19.71770 | 83.40938 | 34865 ft | 505 kts | 113° |
| 2026-04-26 11:33 | 19.69276 | 83.47886 | 34865 ft | 505 kts | 113° |
| 2026-04-26 11:34 | 19.66805 | 83.54758 | 34866 ft | 491 kts | 113° |
| 2026-04-26 11:34 | 19.64388 | 83.61498 | 34870 ft | 493 kts | 113° |
| 2026-04-26 11:35 | 19.61943 | 83.68258 | 34864 ft | 493 kts | 113° |
| 2026-04-26 11:35 | 19.59459 | 83.75051 | 34864 ft | 493 kts | 113° |
| 2026-04-26 11:36 | 19.57006 | 83.81802 | 34864 ft | 493 kts | 113° |
| 2026-04-26 11:36 | 19.54548 | 83.88570 | 34864 ft | 493 kts | 112° |
| 2026-04-26 11:37 | 19.52319 | 83.95431 | 34862 ft | 494 kts | 110° |
| 2026-04-26 11:37 | 19.50260 | 84.02353 | 34858 ft | 494 kts | 109° |
| 2026-04-26 11:38 | 19.48191 | 84.09304 | 34857 ft | 494 kts | 110° |
| 2026-04-26 11:38 | 19.46088 | 84.16189 | 34855 ft | 494 kts | 110° |
| 2026-04-26 11:39 | 19.43924 | 84.23095 | 34852 ft | 494 kts | 110° |
| 2026-04-26 11:39 | 19.41806 | 84.29999 | 34852 ft | 494 kts | 110° |
| 2026-04-26 11:40 | 19.39675 | 84.36901 | 34853 ft | 494 kts | 110° |
| 2026-04-26 11:40 | 19.37555 | 84.43805 | 34849 ft | 495 kts | 110° |
| 2026-04-26 11:42 | 19.28986 | 84.71397 | 34841 ft | 494 kts | 110° |
| 2026-04-26 11:43 | 19.26817 | 84.78264 | 34841 ft | 494 kts | 110° |
| 2026-04-26 11:43 | 19.24654 | 84.85142 | 34840 ft | 494 kts | 111° |
| 2026-04-26 11:44 | 19.22487 | 84.92045 | 34838 ft | 494 kts | 110° |
| 2026-04-26 11:44 | 19.20333 | 84.98908 | 34838 ft | 494 kts | 110° |
| 2026-04-26 11:45 | 19.18169 | 85.05798 | 34837 ft | 494 kts | 110° |
| 2026-04-26 11:45 | 19.16013 | 85.12671 | 34835 ft | 494 kts | 110° |
| 2026-04-26 11:46 | 19.13857 | 85.19562 | 34835 ft | 494 kts | 110° |
| 2026-04-26 11:46 | 19.11706 | 85.26461 | 34834 ft | 494 kts | 110° |
| 2026-04-26 11:47 | 19.09565 | 85.33323 | 34833 ft | 494 kts | 110° |
| 2026-04-26 11:47 | 19.07404 | 85.40227 | 34833 ft | 494 kts | 110° |
| 2026-04-26 11:48 | 19.05228 | 85.47099 | 34832 ft | 494 kts | 111° |
| 2026-04-26 11:48 | 19.03035 | 85.53952 | 34832 ft | 494 kts | 111° |
| 2026-04-26 11:49 | 19.00834 | 85.60806 | 34832 ft | 494 kts | 111° |
| 2026-04-26 11:49 | 18.98624 | 85.67680 | 34831 ft | 494 kts | 111° |
| 2026-04-26 11:50 | 18.96421 | 85.74526 | 34832 ft | 494 kts | 111° |
| 2026-04-26 11:50 | 18.94222 | 85.81363 | 34833 ft | 494 kts | 111° |
| 2026-04-26 11:51 | 18.92037 | 85.88259 | 34833 ft | 494 kts | 111° |
| 2026-04-26 11:51 | 18.89851 | 85.95106 | 34832 ft | 494 kts | 111° |
| 2026-04-26 11:52 | 18.87681 | 86.01963 | 34832 ft | 494 kts | 111° |
| 2026-04-26 11:52 | 18.85500 | 86.08837 | 34833 ft | 494 kts | 110° |
| 2026-04-26 11:53 | 18.83350 | 86.15712 | 34832 ft | 494 kts | 110° |
| 2026-04-26 11:54 | 18.80057 | 86.25973 | 34836 ft | 494 kts | 111° |
| 2026-04-26 11:54 | 18.77810 | 86.32839 | 34833 ft | 494 kts | 111° |
| 2026-04-26 11:55 | 18.75598 | 86.39674 | 34834 ft | 494 kts | 111° |
| 2026-04-26 11:55 | 18.73392 | 86.46511 | 34834 ft | 494 kts | 111° |
| 2026-04-26 11:56 | 18.71421 | 86.52591 | 34835 ft | 494 kts | 111° |
| 2026-04-26 11:56 | 18.69737 | 86.57797 | 34835 ft | 494 kts | 111° |
| 2026-04-26 11:57 | 18.67525 | 86.64649 | 34835 ft | 494 kts | 111° |
| 2026-04-26 11:57 | 18.65318 | 86.71494 | 34834 ft | 494 kts | 111° |
| 2026-04-26 11:58 | 18.63118 | 86.78314 | 34836 ft | 494 kts | 111° |
| 2026-04-26 11:58 | 18.60905 | 86.85161 | 34837 ft | 494 kts | 111° |
| 2026-04-26 11:59 | 18.58643 | 86.91977 | 34840 ft | 494 kts | 111° |
| 2026-04-26 11:59 | 18.56411 | 86.98802 | 34837 ft | 494 kts | 111° |
| 2026-04-26 12:00 | 18.54162 | 87.05625 | 34839 ft | 494 kts | 111° |
| 2026-04-26 12:00 | 18.51916 | 87.12447 | 34838 ft | 494 kts | 111° |
| 2026-04-26 12:01 | 18.49670 | 87.19260 | 34838 ft | 494 kts | 111° |
| 2026-04-26 12:01 | 18.47443 | 87.26056 | 34839 ft | 484 kts | 111° |
| 2026-04-26 12:02 | 18.45244 | 87.32703 | 34839 ft | 482 kts | 111° |
| 2026-04-26 12:02 | 18.43069 | 87.39368 | 34841 ft | 482 kts | 111° |
| 2026-04-26 12:03 | 18.40887 | 87.46018 | 34839 ft | 481 kts | 111° |
| 2026-04-26 12:03 | 18.38708 | 87.52669 | 34842 ft | 482 kts | 111° |
| 2026-04-26 12:04 | 18.36529 | 87.59340 | 34842 ft | 482 kts | 111° |
| 2026-04-26 12:04 | 18.34327 | 87.65966 | 34841 ft | 482 kts | 111° |
| 2026-04-26 12:05 | 18.32115 | 87.72631 | 34843 ft | 482 kts | 111° |
| 2026-04-26 12:05 | 18.29913 | 87.79278 | 34842 ft | 482 kts | 111° |
| 2026-04-26 12:06 | 18.27731 | 87.85902 | 34843 ft | 482 kts | 111° |
| 2026-04-26 12:06 | 18.25567 | 87.92567 | 34845 ft | 482 kts | 111° |
| 2026-04-26 12:07 | 18.23413 | 87.99242 | 34845 ft | 482 kts | 111° |
| 2026-04-26 12:07 | 18.21264 | 88.05910 | 34845 ft | 482 kts | 111° |
| 2026-04-26 12:08 | 18.19124 | 88.12554 | 34849 ft | 483 kts | 111° |
| 2026-04-26 12:08 | 18.16975 | 88.19225 | 34844 ft | 482 kts | 111° |
| 2026-04-26 12:09 | 18.14830 | 88.25884 | 34846 ft | 482 kts | 111° |
| 2026-04-26 12:09 | 18.12685 | 88.32543 | 34846 ft | 482 kts | 111° |
| 2026-04-26 12:10 | 18.10537 | 88.39197 | 34846 ft | 482 kts | 111° |
| 2026-04-26 12:10 | 18.08389 | 88.45856 | 34848 ft | 482 kts | 111° |
| 2026-04-26 12:11 | 18.06241 | 88.52518 | 34847 ft | 482 kts | 111° |
| 2026-04-26 12:11 | 18.04048 | 88.59170 | 34848 ft | 482 kts | 111° |
| 2026-04-26 12:12 | 18.01869 | 88.65800 | 34849 ft | 482 kts | 111° |
| 2026-04-26 12:12 | 17.99713 | 88.72449 | 34848 ft | 482 kts | 111° |
| 2026-04-26 12:13 | 17.97564 | 88.79101 | 34848 ft | 482 kts | 111° |
| 2026-04-26 12:13 | 17.95372 | 88.85734 | 34849 ft | 482 kts | 111° |
| 2026-04-26 12:14 | 17.93199 | 88.92378 | 34849 ft | 482 kts | 111° |
| 2026-04-26 12:14 | 17.91045 | 88.99040 | 34850 ft | 482 kts | 111° |
| 2026-04-26 12:15 | 17.88912 | 89.05682 | 34850 ft | 482 kts | 111° |
| 2026-04-26 12:15 | 17.86770 | 89.12332 | 34851 ft | 482 kts | 111° |
| 2026-04-26 12:16 | 17.84631 | 89.19000 | 34851 ft | 482 kts | 111° |
| 2026-04-26 12:16 | 17.82496 | 89.25650 | 34850 ft | 482 kts | 111° |
| 2026-04-26 12:17 | 17.80363 | 89.32301 | 34851 ft | 482 kts | 111° |
| 2026-04-26 12:17 | 17.78236 | 89.39017 | 34850 ft | 494 kts | 110° |
| 2026-04-26 12:18 | 17.76042 | 89.45933 | 34852 ft | 507 kts | 111° |
| 2026-04-26 12:18 | 17.73773 | 89.53025 | 34853 ft | 521 kts | 112° |
| 2026-04-26 12:19 | 17.71452 | 89.60275 | 34853 ft | 525 kts | 112° |
| 2026-04-26 12:19 | 17.69127 | 89.67499 | 34852 ft | 524 kts | 113° |
| 2026-04-26 12:20 | 17.66784 | 89.74714 | 34853 ft | 524 kts | 113° |
| 2026-04-26 12:20 | 17.64436 | 89.81923 | 34853 ft | 524 kts | 113° |
| 2026-04-26 12:21 | 17.62067 | 89.89092 | 34853 ft | 521 kts | 114° |
| 2026-04-26 12:21 | 17.59709 | 89.96263 | 34853 ft | 522 kts | 113° |
| 2026-04-26 12:22 | 17.57405 | 90.03389 | 34872 ft | 511 kts | 114° |
| 2026-04-26 12:22 | 17.55099 | 90.10438 | 34902 ft | 513 kts | 115° |
| 2026-04-26 12:23 | 17.52789 | 90.17487 | 34904 ft | 514 kts | 114° |
| 2026-04-26 12:23 | 17.50517 | 90.24566 | 34904 ft | 514 kts | 114° |
| 2026-04-26 12:24 | 17.48212 | 90.31631 | 34904 ft | 514 kts | 114° |
| 2026-04-26 12:24 | 17.45921 | 90.38696 | 34904 ft | 514 kts | 115° |
| 2026-04-26 12:25 | 17.42433 | 90.49277 | 34901 ft | 518 kts | 114° |
| 2026-04-26 12:25 | 17.40041 | 90.56493 | 34905 ft | 532 kts | 116° |
| 2026-04-26 12:26 | 17.37507 | 90.63843 | 34905 ft | 539 kts | 117° |
| 2026-04-26 12:26 | 17.34913 | 90.71136 | 34904 ft | 533 kts | 117° |
| 2026-04-26 12:27 | 17.32389 | 90.78318 | 34904 ft | 522 kts | 116° |
| 2026-04-26 12:27 | 17.29932 | 90.85359 | 34904 ft | 513 kts | 115° |
| 2026-04-26 12:28 | 17.27512 | 90.92300 | 34904 ft | 503 kts | 114° |
| 2026-04-26 12:28 | 17.25145 | 90.99083 | 34904 ft | 495 kts | 113° |
| 2026-04-26 12:29 | 17.22792 | 91.05845 | 34905 ft | 497 kts | 113° |
| 2026-04-26 12:30 | 17.19253 | 91.16020 | 34904 ft | 497 kts | 113° |
| 2026-04-26 12:30 | 17.16901 | 91.22781 | 34904 ft | 497 kts | 113° |
| 2026-04-26 12:31 | 17.13346 | 91.32940 | 34904 ft | 497 kts | 113° |
| 2026-04-26 12:31 | 17.10949 | 91.39679 | 34904 ft | 496 kts | 114° |
| 2026-04-26 12:32 | 17.08557 | 91.46426 | 34904 ft | 497 kts | 113° |
| 2026-04-26 12:33 | 17.04965 | 91.56552 | 34904 ft | 497 kts | 113° |
| 2026-04-26 12:33 | 17.02588 | 91.63311 | 34904 ft | 497 kts | 113° |
| 2026-04-26 12:34 | 17.00196 | 91.70026 | 34904 ft | 485 kts | 114° |
| 2026-04-26 12:34 | 16.97875 | 91.76553 | 34904 ft | 479 kts | 112° |
| 2026-04-26 12:35 | 16.95562 | 91.83078 | 34905 ft | 481 kts | 112° |
| 2026-04-26 12:35 | 16.93258 | 91.89661 | 34905 ft | 491 kts | 113° |
| 2026-04-26 12:36 | 16.90884 | 91.96375 | 34904 ft | 492 kts | 114° |
| 2026-04-26 12:36 | 16.88521 | 92.03050 | 34904 ft | 492 kts | 114° |
| 2026-04-26 12:37 | 16.86154 | 92.09734 | 34904 ft | 492 kts | 114° |
| 2026-04-26 12:37 | 16.83803 | 92.16439 | 34904 ft | 492 kts | 114° |
| 2026-04-26 12:38 | 16.81445 | 92.23118 | 34904 ft | 492 kts | 114° |
| 2026-04-26 12:38 | 16.79098 | 92.29821 | 34904 ft | 492 kts | 114° |
| 2026-04-26 12:39 | 16.76748 | 92.36503 | 34904 ft | 492 kts | 114° |
| 2026-04-26 12:39 | 16.74404 | 92.43188 | 34904 ft | 492 kts | 114° |
| 2026-04-26 12:40 | 16.72063 | 92.49882 | 34904 ft | 492 kts | 114° |
| 2026-04-26 12:40 | 16.69713 | 92.56572 | 34907 ft | 498 kts | 114° |
| 2026-04-26 12:41 | 16.67282 | 92.63403 | 34906 ft | 504 kts | 114° |
| 2026-04-26 12:41 | 16.64767 | 92.70217 | 34904 ft | 503 kts | 115° |
| 2026-04-26 12:42 | 16.62248 | 92.76992 | 34904 ft | 504 kts | 114° |
| 2026-04-26 12:42 | 16.59775 | 92.83803 | 34904 ft | 504 kts | 114° |
| 2026-04-26 12:43 | 16.57287 | 92.90611 | 34904 ft | 503 kts | 115° |
| 2026-04-26 12:43 | 16.54802 | 92.97430 | 34904 ft | 504 kts | 114° |
| 2026-04-26 12:44 | 16.52324 | 93.04216 | 34904 ft | 504 kts | 114° |
| 2026-04-26 12:44 | 16.49847 | 93.11045 | 34904 ft | 504 kts | 114° |
| 2026-04-26 12:45 | 16.47367 | 93.17833 | 34904 ft | 504 kts | 114° |
| 2026-04-26 12:45 | 16.44896 | 93.24658 | 34904 ft | 504 kts | 114° |
| 2026-04-26 12:46 | 16.42401 | 93.31448 | 34904 ft | 504 kts | 114° |
| 2026-04-26 12:46 | 16.39888 | 93.38231 | 34904 ft | 503 kts | 115° |
| 2026-04-26 12:47 | 16.37357 | 93.45021 | 34904 ft | 504 kts | 114° |
| 2026-04-26 12:47 | 16.34863 | 93.51787 | 34904 ft | 503 kts | 115° |
| 2026-04-26 12:48 | 16.32340 | 93.58593 | 34904 ft | 504 kts | 114° |
| 2026-04-26 12:48 | 16.29833 | 93.65378 | 34904 ft | 503 kts | 115° |
| 2026-04-26 12:49 | 16.27333 | 93.72168 | 34904 ft | 504 kts | 114° |
| 2026-04-26 12:49 | 16.24825 | 93.78938 | 34905 ft | 503 kts | 115° |
| 2026-04-26 12:49 | 16.23596 | 93.82271 | 34897 ft | 485 kts | 114° |
| 2026-04-26 12:50 | 16.22425 | 93.85472 | 34862 ft | 467 kts | 113° |
| 2026-04-26 12:50 | 16.20095 | 93.91835 | 34847 ft | 475 kts | 112° |
| 2026-04-26 12:51 | 16.17731 | 93.98258 | 34845 ft | 476 kts | 112° |
| 2026-04-26 12:51 | 16.15369 | 94.04654 | 34845 ft | 476 kts | 112° |
| 2026-04-26 12:52 | 16.12973 | 94.11052 | 34845 ft | 476 kts | 113° |
| 2026-04-26 12:52 | 16.10561 | 94.17429 | 34845 ft | 476 kts | 113° |
| 2026-04-26 12:53 | 16.08166 | 94.23826 | 34845 ft | 476 kts | 112° |
| 2026-04-26 12:53 | 16.05767 | 94.30221 | 34843 ft | 475 kts | 112° |
| 2026-04-26 12:54 | 16.03378 | 94.36609 | 34845 ft | 476 kts | 112° |
| 2026-04-26 12:54 | 16.00990 | 94.43000 | 34845 ft | 476 kts | 112° |
| 2026-04-26 12:55 | 15.98603 | 94.49394 | 34845 ft | 476 kts | 112° |
| 2026-04-26 12:55 | 15.96218 | 94.55787 | 34845 ft | 476 kts | 112° |
| 2026-04-26 12:56 | 15.93835 | 94.62179 | 34845 ft | 476 kts | 112° |
| 2026-04-26 12:56 | 15.91450 | 94.68583 | 34845 ft | 476 kts | 112° |
| 2026-04-26 12:57 | 15.89084 | 94.74970 | 34843 ft | 475 kts | 112° |
| 2026-04-26 12:57 | 15.86693 | 94.81358 | 34845 ft | 476 kts | 112° |
| 2026-04-26 12:58 | 15.83066 | 94.90928 | 34845 ft | 476 kts | 113° |
| 2026-04-26 12:58 | 15.80647 | 94.97289 | 34845 ft | 476 kts | 113° |
| 2026-04-26 12:59 | 15.78218 | 95.03673 | 34845 ft | 476 kts | 113° |
| 2026-04-26 12:59 | 15.75794 | 95.10042 | 34845 ft | 476 kts | 113° |
| 2026-04-26 13:00 | 15.73369 | 95.16412 | 34845 ft | 476 kts | 113° |
| 2026-04-26 13:00 | 15.70956 | 95.22773 | 34845 ft | 476 kts | 112° |
| 2026-04-26 13:01 | 15.68545 | 95.29161 | 34845 ft | 476 kts | 113° |
| 2026-04-26 13:01 | 15.66146 | 95.35525 | 34845 ft | 476 kts | 112° |
| 2026-04-26 13:02 | 15.63738 | 95.41914 | 34845 ft | 476 kts | 112° |
| 2026-04-26 13:02 | 15.61365 | 95.48294 | 34845 ft | 476 kts | 112° |
| 2026-04-26 13:03 | 15.58988 | 95.54681 | 34845 ft | 476 kts | 113° |
| 2026-04-26 13:03 | 15.56535 | 95.61034 | 34845 ft | 476 kts | 113° |
| 2026-04-26 13:04 | 15.54083 | 95.67395 | 34845 ft | 476 kts | 113° |
| 2026-04-26 13:04 | 15.51636 | 95.73773 | 34845 ft | 476 kts | 113° |
| 2026-04-26 13:05 | 15.49196 | 95.80139 | 34845 ft | 476 kts | 113° |
| 2026-04-26 13:05 | 15.46762 | 95.86490 | 34845 ft | 476 kts | 113° |
| 2026-04-26 13:06 | 15.44321 | 95.92859 | 34845 ft | 476 kts | 113° |
| 2026-04-26 13:06 | 15.41882 | 95.99223 | 34845 ft | 476 kts | 113° |
| 2026-04-26 13:07 | 15.39438 | 96.05600 | 34845 ft | 476 kts | 113° |
| 2026-04-26 13:07 | 15.37002 | 96.11953 | 34845 ft | 476 kts | 113° |
| 2026-04-26 13:08 | 15.34566 | 96.18314 | 34845 ft | 476 kts | 112° |
| 2026-04-26 13:08 | 15.32167 | 96.24713 | 34845 ft | 477 kts | 112° |
| 2026-04-26 13:09 | 15.29723 | 96.31074 | 34845 ft | 476 kts | 113° |
| 2026-04-26 13:09 | 15.27240 | 96.37420 | 34852 ft | 477 kts | 113° |
| 2026-04-26 13:10 | 15.25193 | 96.42718 | 34853 ft | 477 kts | 113° |
| 2026-04-26 13:10 | 15.22919 | 96.48634 | 34855 ft | 477 kts | 112° |
| 2026-04-26 13:11 | 15.20551 | 96.55037 | 34851 ft | 477 kts | 111° |
| 2026-04-26 13:11 | 15.18244 | 96.61445 | 34853 ft | 477 kts | 112° |
| 2026-04-26 13:12 | 15.15907 | 96.67853 | 34858 ft | 477 kts | 112° |
| 2026-04-26 13:12 | 15.13559 | 96.74264 | 34852 ft | 477 kts | 112° |
| 2026-04-26 13:13 | 15.11216 | 96.80652 | 34854 ft | 477 kts | 112° |
| 2026-04-26 13:13 | 15.08871 | 96.87057 | 34856 ft | 477 kts | 111° |
| 2026-04-26 13:14 | 15.06541 | 96.93478 | 34856 ft | 477 kts | 112° |
| 2026-04-26 13:14 | 15.04241 | 96.99811 | 34856 ft | 469 kts | 111° |
| 2026-04-26 13:15 | 15.01976 | 97.06142 | 34857 ft | 470 kts | 111° |
| 2026-04-26 13:15 | 14.99679 | 97.12459 | 34857 ft | 470 kts | 111° |
| 2026-04-26 13:16 | 14.97387 | 97.18767 | 34857 ft | 470 kts | 111° |
| 2026-04-26 13:16 | 14.95062 | 97.25068 | 34856 ft | 470 kts | 112° |
| 2026-04-26 13:17 | 14.91561 | 97.34512 | 34862 ft | 470 kts | 111° |
| 2026-04-26 13:18 | 14.88067 | 97.43962 | 34866 ft | 471 kts | 111° |
| 2026-04-26 13:19 | 14.84583 | 97.53409 | 34863 ft | 470 kts | 111° |
| 2026-04-26 13:19 | 14.82257 | 97.59723 | 34864 ft | 470 kts | 111° |
| 2026-04-26 13:20 | 14.79942 | 97.66010 | 34863 ft | 470 kts | 111° |
| 2026-04-26 13:20 | 14.77624 | 97.72306 | 34863 ft | 470 kts | 111° |
| 2026-04-26 13:21 | 14.75308 | 97.78609 | 34867 ft | 470 kts | 111° |
| 2026-04-26 13:21 | 14.73131 | 97.84532 | 34868 ft | 470 kts | 111° |
| 2026-04-26 13:22 | 14.70818 | 97.90842 | 34868 ft | 470 kts | 111° |
| 2026-04-26 13:22 | 14.68518 | 97.97130 | 34868 ft | 471 kts | 111° |
| 2026-04-26 13:23 | 14.66174 | 98.03420 | 34868 ft | 470 kts | 112° |
| 2026-04-26 13:23 | 14.63851 | 98.09714 | 34870 ft | 471 kts | 109° |
| 2026-04-26 13:24 | 14.62464 | 98.16296 | 34879 ft | 472 kts | 97° |
| 2026-04-26 13:24 | 14.61871 | 98.23021 | 34874 ft | 473 kts | 96° |
| 2026-04-26 13:25 | 14.61101 | 98.29745 | 34878 ft | 472 kts | 99° |
| 2026-04-26 13:25 | 14.59949 | 98.36412 | 34877 ft | 472 kts | 102° |
| 2026-04-26 13:26 | 14.58609 | 98.43002 | 34868 ft | 471 kts | 103° |
| 2026-04-26 13:26 | 14.57271 | 98.49617 | 34867 ft | 472 kts | 102° |
| 2026-04-26 13:27 | 14.55996 | 98.56237 | 34867 ft | 472 kts | 102° |
| 2026-04-26 13:27 | 14.54744 | 98.62863 | 34866 ft | 472 kts | 102° |
| 2026-04-26 13:28 | 14.53499 | 98.69486 | 34863 ft | 472 kts | 102° |
| 2026-04-26 13:28 | 14.52255 | 98.76119 | 34861 ft | 471 kts | 102° |
| 2026-04-26 13:29 | 14.51011 | 98.82760 | 34861 ft | 472 kts | 102° |
| 2026-04-26 13:29 | 14.49797 | 98.89378 | 34861 ft | 472 kts | 101° |
| 2026-04-26 13:30 | 14.48620 | 98.96042 | 34858 ft | 475 kts | 102° |
| 2026-04-26 13:30 | 14.47396 | 99.02719 | 34856 ft | 474 kts | 102° |
| 2026-04-26 13:31 | 14.46198 | 99.09393 | 34853 ft | 467 kts | 102° |
| 2026-04-26 13:31 | 14.45617 | 99.12601 | 34649 ft | 451 kts | 101° |
| 2026-04-26 13:31 | 14.45052 | 99.15758 | 34003 ft | 446 kts | 101° |
| 2026-04-26 13:31 | 14.44501 | 99.18880 | 33398 ft | 440 kts | 101° |
| 2026-04-26 13:32 | 14.43962 | 99.21955 | 32815 ft | 434 kts | 101° |
| 2026-04-26 13:32 | 14.43424 | 99.24993 | 32237 ft | 428 kts | 101° |
| 2026-04-26 13:32 | 14.42875 | 99.27995 | 31661 ft | 422 kts | 102° |
| 2026-04-26 13:32 | 14.42333 | 99.30941 | 31105 ft | 416 kts | 102° |
| 2026-04-26 13:33 | 14.41799 | 99.33847 | 30553 ft | 411 kts | 102° |
| 2026-04-26 13:33 | 14.41273 | 99.36714 | 30007 ft | 407 kts | 102° |
| 2026-04-26 13:33 | 14.40754 | 99.39555 | 29465 ft | 402 kts | 102° |
| 2026-04-26 13:33 | 14.40253 | 99.42371 | 28937 ft | 399 kts | 102° |
| 2026-04-26 13:34 | 14.39754 | 99.45168 | 28413 ft | 396 kts | 102° |
| 2026-04-26 13:34 | 14.39253 | 99.47949 | 27887 ft | 393 kts | 102° |
| 2026-04-26 13:34 | 14.38765 | 99.50689 | 27365 ft | 389 kts | 102° |
| 2026-04-26 13:34 | 14.38440 | 99.52511 | 27015 ft | 387 kts | 102° |
| 2026-04-26 13:35 | 14.37796 | 99.56137 | 26336 ft | 385 kts | 101° |
| 2026-04-26 13:35 | 14.37320 | 99.58841 | 25835 ft | 382 kts | 101° |
| 2026-04-26 13:35 | 14.36850 | 99.61511 | 25337 ft | 379 kts | 101° |
| 2026-04-26 13:35 | 14.36381 | 99.64178 | 24847 ft | 377 kts | 101° |
| 2026-04-26 13:36 | 14.35923 | 99.66810 | 24343 ft | 372 kts | 101° |
| 2026-04-26 13:36 | 14.35455 | 99.69409 | 23840 ft | 367 kts | 101° |
| 2026-04-26 13:36 | 14.34975 | 99.71976 | 23354 ft | 361 kts | 102° |
| 2026-04-26 13:36 | 14.34497 | 99.74498 | 22882 ft | 361 kts | 102° |
| 2026-04-26 13:37 | 14.34032 | 99.77035 | 22409 ft | 361 kts | 101° |
| 2026-04-26 13:37 | 14.33572 | 99.79567 | 21935 ft | 359 kts | 101° |
| 2026-04-26 13:37 | 14.33105 | 99.82074 | 21462 ft | 356 kts | 101° |
| 2026-04-26 13:37 | 14.32647 | 99.84567 | 20987 ft | 353 kts | 101° |
| 2026-04-26 13:38 | 14.32201 | 99.87026 | 20513 ft | 347 kts | 101° |
| 2026-04-26 13:38 | 14.31758 | 99.89450 | 20036 ft | 342 kts | 100° |
| 2026-04-26 13:38 | 14.31322 | 99.91843 | 19558 ft | 337 kts | 100° |
| 2026-04-26 13:38 | 14.30896 | 99.94182 | 19103 ft | 332 kts | 100° |
| 2026-04-26 13:39 | 14.30470 | 99.96520 | 18656 ft | 334 kts | 100° |
| 2026-04-26 13:39 | 14.30041 | 99.98879 | 18208 ft | 334 kts | 100° |
| 2026-04-26 13:39 | 14.29615 | 100.01217 | 17761 ft | 332 kts | 100° |
| 2026-04-26 13:39 | 14.29193 | 100.03535 | 17312 ft | 329 kts | 100° |
| 2026-04-26 13:40 | 14.28772 | 100.05844 | 16861 ft | 326 kts | 100° |
| 2026-04-26 13:40 | 14.28356 | 100.08125 | 16420 ft | 325 kts | 100° |
| 2026-04-26 13:40 | 14.27941 | 100.10399 | 15962 ft | 321 kts | 100° |
| 2026-04-26 13:40 | 14.27589 | 100.12331 | 15584 ft | 317 kts | 100° |
| 2026-04-26 13:41 | 14.27180 | 100.14561 | 15158 ft | 314 kts | 100° |
| 2026-04-26 13:41 | 14.26779 | 100.16747 | 14723 ft | 312 kts | 100° |
| 2026-04-26 13:41 | 14.26378 | 100.18958 | 14286 ft | 315 kts | 100° |
| 2026-04-26 13:41 | 14.25979 | 100.21166 | 13849 ft | 313 kts | 100° |
| 2026-04-26 13:42 | 14.25583 | 100.23358 | 13397 ft | 310 kts | 100° |
| 2026-04-26 13:42 | 14.25184 | 100.25535 | 12946 ft | 308 kts | 100° |
| 2026-04-26 13:42 | 14.24795 | 100.27676 | 12499 ft | 305 kts | 100° |
| 2026-04-26 13:42 | 14.24406 | 100.29821 | 12049 ft | 303 kts | 100° |
| 2026-04-26 13:43 | 14.24021 | 100.31935 | 11602 ft | 301 kts | 100° |
| 2026-04-26 13:43 | 14.23635 | 100.34054 | 11153 ft | 300 kts | 100° |
| 2026-04-26 13:43 | 14.23254 | 100.36151 | 10730 ft | 298 kts | 100° |
| 2026-04-26 13:43 | 14.22873 | 100.38241 | 10302 ft | 296 kts | 101° |
| 2026-04-26 13:44 | 14.22487 | 100.40312 | 9875 ft | 295 kts | 101° |
| 2026-04-26 13:44 | 14.22102 | 100.42382 | 9452 ft | 294 kts | 101° |
| 2026-04-26 13:44 | 14.21719 | 100.44444 | 9028 ft | 294 kts | 100° |
| 2026-04-26 13:44 | 14.21402 | 100.46526 | 8604 ft | 293 kts | 98° |
| 2026-04-26 13:45 | 14.21136 | 100.48589 | 8183 ft | 292 kts | 97° |
| 2026-04-26 13:45 | 14.20885 | 100.50671 | 7759 ft | 292 kts | 97° |
| 2026-04-26 13:45 | 14.20649 | 100.52743 | 7335 ft | 291 kts | 96° |
| 2026-04-26 13:45 | 14.20425 | 100.54801 | 6915 ft | 291 kts | 97° |
| 2026-04-26 13:46 | 14.20174 | 100.56872 | 6509 ft | 292 kts | 97° |
| 2026-04-26 13:46 | 14.19907 | 100.58931 | 6071 ft | 292 kts | 98° |
| 2026-04-26 13:46 | 14.19502 | 100.60974 | 5658 ft | 291 kts | 108° |
| 2026-04-26 13:46 | 14.18701 | 100.62852 | 5337 ft | 287 kts | 120° |
| 2026-04-26 13:47 | 14.17556 | 100.64483 | 4805 ft | 273 kts | 132° |
| 2026-04-26 13:47 | 14.16203 | 100.65750 | 4241 ft | 256 kts | 143° |
| 2026-04-26 13:47 | 14.14756 | 100.66715 | 3682 ft | 243 kts | 151° |
| 2026-04-26 13:47 | 14.13270 | 100.67478 | 3123 ft | 235 kts | 156° |
| 2026-04-26 13:48 | 14.11789 | 100.68111 | 2638 ft | 225 kts | 159° |
| 2026-04-26 13:48 | 14.10349 | 100.68654 | 2626 ft | 222 kts | 162° |
| 2026-04-26 13:48 | 14.08905 | 100.69085 | 2609 ft | 212 kts | 166° |
| 2026-04-26 13:48 | 14.07489 | 100.69227 | 2586 ft | 198 kts | 188° |
| 2026-04-26 13:49 | 14.06265 | 100.68843 | 2659 ft | 176 kts | 202° |
| 2026-04-26 13:49 | 14.05222 | 100.68335 | 2583 ft | 155 kts | 207° |
| 2026-04-26 13:49 | 14.04314 | 100.67834 | 2578 ft | 147 kts | 209° |
| 2026-04-26 13:49 | 14.03407 | 100.67317 | 2302 ft | 150 kts | 209° |
| 2026-04-26 13:50 | 14.02513 | 100.66798 | 2022 ft | 147 kts | 209° |
| 2026-04-26 13:50 | 14.01631 | 100.66287 | 1836 ft | 146 kts | 209° |
| 2026-04-26 13:50 | 14.00743 | 100.65780 | 1721 ft | 146 kts | 209° |
| 2026-04-26 13:50 | 13.99852 | 100.65278 | 1616 ft | 147 kts | 208° |
| 2026-04-26 13:51 | 13.98954 | 100.64777 | 1465 ft | 147 kts | 208° |
| 2026-04-26 13:51 | 13.98059 | 100.64278 | 1268 ft | 147 kts | 208° |
| 2026-04-26 13:51 | 13.97168 | 100.63780 | 1059 ft | 146 kts | 208° |
| 2026-04-26 13:51 | 13.96276 | 100.63280 | 852 ft | 145 kts | 208° |
| 2026-04-26 13:52 | 13.95394 | 100.62786 | 649 ft | 145 kts | 208° |
| 2026-04-26 13:52 | 13.94509 | 100.62289 | 442 ft | 145 kts | 208° |
| 2026-04-26 13:52 | 13.93640 | 100.61797 | 236 ft | 144 kts | 209° |
| 2026-04-26 13:52 | 13.92762 | 100.61299 | 59 ft | 143 kts | 208° |
| 2026-04-26 13:53 | 13.92015 | 100.60879 | 21 ft | 83 kts | 206° |
| 2026-04-26 13:53 | 13.91627 | 100.60664 | 21 ft | 39 kts | 209° |
| 2026-04-26 13:53 | 13.91515 | 100.60560 | 21 ft | 13 kts | 290° |
| 2026-04-26 13:53 | 13.91560 | 100.60477 | 21 ft | 13 kts | 302° |
| 2026-04-26 13:54 | 13.91625 | 100.60430 | 21 ft | 12 kts | 5° |
| 2026-04-26 13:54 | 13.91702 | 100.60462 | 21 ft | 12 kts | 12° |
| 2026-04-26 13:54 | 13.91754 | 100.60413 | 21 ft | 11 kts | 266° |
| 2026-04-26 13:55 | 13.91800 | 100.60272 | 21 ft | 10 kts | 305° |
| 2026-04-26 13:55 | 13.91836 | 100.60258 | 21 ft | 9 kts | 23° |
| 2026-04-26 13:55 | 13.91879 | 100.60281 | 21 ft | 0 kts | 27° |